Bookmark and Share
Track history (hours):
 

Hebe

Last reported at 2014-Apr-19 01:33 UTC. Time now 2014-Apr-19 02:11 UTC.
Position N 50°49' E 001°00'.

Length 220 m; draft 10.4 m.

Type: Ship. MMSI: 636091480.

NotesDate/timePositionNaut miles runAvg speedWind from/ knotsBaromVisibWave heightAir tempDewpointWater temp
2014-Apr-19 01:33N 50°49' E 001°00'1714.8
2014-Apr-19 00:25N 51°00' E 001°20'1214.5
2014-Apr-18 23:33N 51°08' E 001°35'1515.0
2014-Apr-18 22:34N 51°20' E 001°50'1515.2
2014-Apr-18 21:33N 51°32' E 002°03'1615.7
2014-Apr-18 20:33N 51°44' E 002°21'7715.4
2014-Apr-18 15:33N 52°44' E 003°39'1514.8
2014-Apr-18 14:33N 52°55' E 003°55'1616.1
2014-Apr-18 13:33N 53°06' E 004°15'1816.8
2014-Apr-18 12:31N 53°21' E 004°31'1515.4
2014-Apr-18 11:34N 53°31' E 004°48'1616.0
2014-Apr-18 10:34N 53°37' E 005°13'1616.1
2014-Apr-18 09:33N 53°42' E 005°39'1817.2
2014-Apr-18 08:32N 53°47' E 006°07'3818.6
2014-Apr-18 06:31N 53°57' E 007°09'1819.1
2014-Apr-18 05:33N 53°58' E 007°40'1514.8
2014-Apr-18 04:33N 53°51' E 008°02'1918.7
2014-Apr-18 03:33N 53°39' E 008°26'5 4.9
2014-Apr-18 02:32N 53°35' E 008°32'0 0.0
2014-Apr-18 01:32N 53°35' E 008°32'0 0.0
2014-Apr-18 00:31N 53°35' E 008°32'0 0.0
2014-Apr-17 23:33N 53°35' E 008°32'0 0.0
2014-Apr-17 22:33N 53°35' E 008°32'0 0.0
2014-Apr-17 21:33N 53°35' E 008°32'0 0.0
2014-Apr-17 20:32N 53°35' E 008°32'0 0.0
2014-Apr-17 19:32N 53°35' E 008°32'0 0.0
2014-Apr-17 18:31N 53°35' E 008°32'0 0.0
2014-Apr-17 17:31N 53°35' E 008°32'0 0.0
2014-Apr-17 16:33N 53°35' E 008°32'0 0.0
2014-Apr-17 15:33N 53°35' E 008°32'0 0.0
2014-Apr-17 14:33N 53°35' E 008°32'0 0.0
2014-Apr-17 13:32N 53°35' E 008°32'0 0.0
2014-Apr-17 12:32N 53°35' E 008°32'0 0.0
2014-Apr-17 11:31N 53°35' E 008°32'0 0.0
2014-Apr-17 10:31N 53°35' E 008°32'0 0.0
2014-Apr-17 09:33N 53°35' E 008°32'0 0.0
2014-Apr-17 08:33N 53°35' E 008°32'0 0.0
2014-Apr-17 07:33N 53°35' E 008°32'0 0.0
2014-Apr-17 06:32N 53°35' E 008°32'0 0.0
2014-Apr-17 05:32N 53°35' E 008°32'1 1.1
2014-Apr-17 04:34N 53°36' E 008°31'9 9.3
2014-Apr-17 03:34N 53°42' E 008°19'1413.8
2014-Apr-17 02:33N 53°51' E 008°01'1211.9
2014-Apr-17 01:33N 53°54' E 007°41'6 6.1
2014-Apr-17 00:33N 53°54' E 007°31'10 9.8
2014-Apr-16 23:33N 53°53' E 007°14'1313.5
2014-Apr-16 22:33N 53°50' E 006°52'1413.8
2014-Apr-16 21:34N 53°47' E 006°29'1414.0
2014-Apr-16 20:34N 53°43' E 006°07'1413.9
2014-Apr-16 19:34N 53°38' E 005°44'1413.9
2014-Apr-16 18:34N 53°34' E 005°22'1414.0
2014-Apr-16 17:34N 53°29' E 005°00'1413.8
2014-Apr-16 16:34N 53°22' E 004°41'1414.3
2014-Apr-16 15:33N 53°09' E 004°29'1414.4
2014-Apr-16 14:33N 52°56' E 004°19'1414.2
2014-Apr-16 13:33N 52°45' E 004°06'1414.5
2014-Apr-16 12:33N 52°33' E 003°50'1414.0
2014-Apr-16 11:33N 52°22' E 003°38'1414.2
2014-Apr-16 10:32N 52°08' E 003°29'1614.3
2014-Apr-16 09:24N 51°53' E 003°22'1214.1
2014-Apr-16 08:32N 51°43' E 003°11'1414.4
2014-Apr-16 07:33N 51°29' E 003°03'1211.6
2014-Apr-16 06:34N 51°24' E 003°20'1414.4
2014-Apr-16 05:34N 51°24' E 003°43'1212.3
2014-Apr-16 04:33N 51°23' E 004°02'9 9.4
2014-Apr-16 03:33N 51°20' E 004°17'0 0.0
2014-Apr-16 02:33N 51°20' E 004°17'0 0.0
2014-Apr-16 01:33N 51°20' E 004°17'0 0.0
2014-Apr-16 00:28N 51°20' E 004°17'0 0.0
2014-Apr-15 23:31N 51°20' E 004°17'0 0.0
2014-Apr-15 22:31N 51°20' E 004°17'0 0.0
2014-Apr-15 21:31N 51°20' E 004°17'0 0.0
2014-Apr-15 20:33N 51°20' E 004°17'0 0.0
2014-Apr-15 19:34N 51°20' E 004°17'0 0.0
2014-Apr-15 18:34N 51°20' E 004°17'0 0.0
2014-Apr-15 17:33N 51°20' E 004°17'0 0.0
2014-Apr-15 16:33N 51°20' E 004°17'0 0.0
2014-Apr-15 15:33N 51°20' E 004°17'0 0.0
2014-Apr-15 14:33N 51°20' E 004°17'0 0.0
2014-Apr-15 12:33N 51°20' E 004°17'0 0.0
2014-Apr-15 11:31N 51°20' E 004°17'0 0.0
2014-Apr-15 10:30N 51°20' E 004°17'1 0.7
2014-Apr-15 09:34N 51°21' E 004°16'1212.0
2014-Apr-15 08:34N 51°26' E 003°59'1111.3
2014-Apr-15 07:34N 51°26' E 003°40'1312.7
2014-Apr-15 06:34N 51°24' E 003°20'1615.7
2014-Apr-15 05:34N 51°22' E 002°55'3316.1
2014-Apr-15 03:33N 51°13' E 002°05'1818.7
2014-Apr-15 02:34N 51°03' E 001°41'3819.0
2014-Apr-15 00:33N 50°32' E 001°05'1918.8
2014-Apr-14 23:34N 50°25' E 000°38'3718.7
2014-Apr-14 21:34N 50°27' W 000°20'2020.3
2014-Apr-14 20:34N 50°37' W 000°48'1615.8
2014-Apr-14 19:34N 50°46' W 001°09'1111.2
2014-Apr-14 18:34N 50°52' W 001°23'4 3.9
2014-Apr-14 17:34N 50°55' W 001°28'0 0.1
2014-Apr-14 16:32N 50°55' W 001°28'0 0.0
2014-Apr-14 15:32N 50°55' W 001°28'0 0.0
2014-Apr-14 14:31N 50°55' W 001°28'0 0.0
2014-Apr-14 13:34N 50°55' W 001°28'0 0.0
2014-Apr-14 11:33N 50°55' W 001°28'0 0.0
2014-Apr-14 10:32N 50°55' W 001°28'0 0.0
2014-Apr-14 09:32N 50°55' W 001°28'0 0.0
2014-Apr-14 08:32N 50°55' W 001°28'0 0.0
2014-Apr-14 07:31N 50°55' W 001°28'0 0.0
2014-Apr-14 06:33N 50°55' W 001°28'0 0.0
2014-Apr-14 05:33N 50°55' W 001°28'54813.2
2014-Apr-12 12:00N 49°06' W 015°24'18015.0 260 / 151023.0 5.4 2.513.010.210.0
2014-Apr-12 00:00N 48°36' W 019°54'18115.1 250 / 171022.010.8 2.011.0 7.211.0
2014-Apr-11 12:00N 47°54' W 024°18'19015.9 220 / 161023.010.8 1.012.0 8.312.0
2014-Apr-11 00:00N 47°00' W 028°48'18415.3 220 / 151025.010.8 2.011.0 7.211.0
2014-Apr-10 12:00N 46°00' W 033°00'19115.9 200 / 121026.010.8 2.511.0 5.011.0
2014-Apr-10 00:00N 44°48' W 037°12'18515.4 230 / 101027.010.8 3.010.0 3.813.0
2014-Apr-09 12:00N 43°30' W 041°06'   310 / 71027.010.8 3.0 9.0 4.914.0

Dump ship's entire track history

sailing weather and tide predictions

Hebe — A8OH7 — position and weather